Port Angeles, WA (98362)

5:57 AM PDT on September 02, 2015 (GMT -0700)
Lake Dawn | | Change Station
CLOSE
Current Station
Personal Weather Station
Location: Port Angeles, WA
Elevation: 1864 ft
Nearby Weather Stations

Elev 1864 ft 48.04 °N, 123.43 °W | Updated 12 minutes ago

Partly Cloudy
Partly Cloudy
45.3 °F
Feels Like 45 °F
N
0.7
Wind Variable Wind from NW
Gusts 2.2 mph

Today
High -- | Low -- °F
--% Chance of Precip.
Yesterday
High -- | Low -- °F
Precip. -- in
6:33 AM 7:53 PM
Waning Gibbous, 80% visible
Pressure 29.83 in
Visibility 10.0 miles
Clouds Clear
Windchill 45 °F
Dew Point 45 °F
Humidity 99%
Rainfall 0.02 in
Snow Depth Not available.
UV 0 out of 12
Pollen .50 out of 12
Air Quality Not available.
Flu Activity Not available.
METAR KCLM 021253Z AUTO 23004KT 10SM CLR 10/09 A2982 RMK AO2 SLP099 T01000089
Pressure 29.83 in
Visibility 10.0 miles
Clouds Clear
Windchill 45 °F
Dew Point 45 °F
Humidity 99%
Rainfall 0.02 in
Snow Depth Not available.
UV 0 out of 12
Pollen .50 out of 12
Air Quality Not available.
Flu Activity Not available.
METAR KCLM 021253Z AUTO 23004KT 10SM CLR 10/09 A2982 RMK AO2 SLP099 T01000089

10-Day Weather Forecast

×

Almanac

Astronomy

Sep. 02, 2015 Rise Set
Actual Time
Civil Twilight
Nautical Twilight
Astronomical Twilight
Moon
Length of Visible Light
Length of Day
Tomorrow will be .
, % of the Moon is Illuminated

Today's Extremes

State Highs State Lows

Community

WunderPhotos

Upload Photos

1,851,738 photos uploaded!

WunderBlogs® & News

Nearby

Air Quality

  Air Quality AQ Index Pollutant
Not available.

Snow Depth

Station Depth Elevation

Earthquake Activity

City Distance Mag. Time & Date
Minimum magnitude displayed is 2.5.

Coastal Water Temperatures

Place Temperature

Stations

Nearby Weather Stations

Station Location Temp. Windchill Dew Point Humidity Wind Precip. Elev Updated Type